createdAt,value
2019-03-20T00:02:16.474Z,93.40
2019-03-20T00:04:49.823Z,93.30
2019-03-20T00:07:11.721Z,93.00
2019-03-20T00:09:38.478Z,92.60
2019-03-20T00:12:05.171Z,93.00
2019-03-20T00:14:31.862Z,93.30
2019-03-20T00:16:58.677Z,93.30
2019-03-20T00:19:25.484Z,93.30
2019-03-20T00:21:52.207Z,94.20
2019-03-20T00:24:18.870Z,94.20
2019-03-20T00:26:45.565Z,94.00
2019-03-20T00:29:12.324Z,93.80
2019-03-20T00:31:38.992Z,93.20
2019-03-20T00:34:05.757Z,93.40
2019-03-20T00:36:32.443Z,93.90
2019-03-20T00:38:59.076Z,93.40
2019-03-20T00:41:25.750Z,92.80
2019-03-20T00:43:52.398Z,93.30
2019-03-20T00:46:19.052Z,93.20
2019-03-20T00:48:45.677Z,93.10
2019-03-20T00:51:12.363Z,93.20
2019-03-20T00:53:38.993Z,93.90
2019-03-20T00:56:05.694Z,95.00
2019-03-20T00:58:32.348Z,95.20
2019-03-20T01:00:59.029Z,95.50
2019-03-20T01:03:25.757Z,95.80
2019-03-20T01:05:52.420Z,95.20
2019-03-20T01:08:19.069Z,94.30
2019-03-20T01:10:45.895Z,94.20
2019-03-20T01:13:12.660Z,93.90
2019-03-20T01:15:39.389Z,93.60
2019-03-20T01:18:06.048Z,94.10
2019-03-20T01:20:32.701Z,93.70
2019-03-20T01:22:59.380Z,93.30
2019-03-20T01:25:27.008Z,93.60
2019-03-20T01:27:53.703Z,94.10
2019-03-20T01:30:30.111Z,93.90
2019-03-20T01:32:57.489Z,94.10
2019-03-20T01:35:24.344Z,93.90
2019-03-20T01:37:50.980Z,94.30
2019-03-20T01:40:17.658Z,94.60
2019-03-20T01:42:44.290Z,95.30
2019-03-20T01:45:11.230Z,95.30
2019-03-20T01:47:38.026Z,94.50
2019-03-20T01:50:05.524Z,93.80
2019-03-20T01:52:32.162Z,94.00
2019-03-20T01:54:58.834Z,93.90
2019-03-20T01:57:25.528Z,93.70
2019-03-20T01:59:52.190Z,94.50
2019-03-20T02:02:18.837Z,94.00
2019-03-20T02:04:45.487Z,93.80
2019-03-20T02:07:12.149Z,93.70
2019-03-20T02:09:38.848Z,93.70
2019-03-20T02:12:05.509Z,94.10
2019-03-20T02:14:32.289Z,94.60
2019-03-20T02:16:58.983Z,94.50
2019-03-20T02:19:25.604Z,94.40
2019-03-20T02:21:52.297Z,94.30
2019-03-20T02:24:18.920Z,94.10
2019-03-20T02:26:45.608Z,93.80
2019-03-20T02:29:12.232Z,94.00
2019-03-20T02:31:38.919Z,94.40
2019-03-20T02:34:05.551Z,94.30
2019-03-20T02:36:32.193Z,94.30
2019-03-20T02:38:58.957Z,94.00
2019-03-20T02:41:25.631Z,94.00
2019-03-20T02:43:52.257Z,94.00
2019-03-20T02:46:18.938Z,93.90
2019-03-20T02:48:45.577Z,94.10
2019-03-20T02:51:12.247Z,94.00
2019-03-20T02:53:38.904Z,94.30
2019-03-20T02:56:05.565Z,94.50
2019-03-20T02:58:32.194Z,94.10
2019-03-20T03:00:58.879Z,94.10
2019-03-20T03:03:25.521Z,94.60
2019-03-20T03:06:05.646Z,94.40
2019-03-20T03:08:20.653Z,94.50
2019-03-20T03:10:47.283Z,94.70
2019-03-20T03:13:13.964Z,94.70
2019-03-20T03:15:40.788Z,94.90
2019-03-20T03:18:07.415Z,95.60
2019-03-20T03:20:34.116Z,95.90
2019-03-20T03:23:00.773Z,95.10
2019-03-20T03:25:27.456Z,95.30
2019-03-20T03:27:54.081Z,94.30
2019-03-20T03:30:20.758Z,94.90
2019-03-20T03:32:47.755Z,94.80
2019-03-20T03:35:17.873Z,94.40
2019-03-20T03:37:43.014Z,94.90
2019-03-20T03:40:14.825Z,94.60
2019-03-20T03:42:41.482Z,94.70
2019-03-20T03:45:13.128Z,94.60
2019-03-20T03:47:39.723Z,94.10
2019-03-20T03:50:07.654Z,94.10
2019-03-20T03:52:34.329Z,94.50
2019-03-20T03:55:01.004Z,94.50
2019-03-20T03:57:27.754Z,94.30
2019-03-20T03:59:54.393Z,94.70
2019-03-20T04:02:21.030Z,94.30
2019-03-20T04:04:47.703Z,94.30
2019-03-20T04:07:14.385Z,94.60
2019-03-20T04:09:41.038Z,94.10
2019-03-20T04:12:07.682Z,94.90
2019-03-20T04:14:34.379Z,94.90
2019-03-20T04:17:01.005Z,95.10
2019-03-20T04:19:27.700Z,94.80
2019-03-20T04:21:54.398Z,94.30
2019-03-20T04:24:21.053Z,94.30
2019-03-20T04:26:47.687Z,94.90
2019-03-20T04:29:14.314Z,94.50
2019-03-20T04:31:41.017Z,94.30
2019-03-20T04:34:07.645Z,94.50
2019-03-20T04:36:34.401Z,94.60
2019-03-20T04:39:01.058Z,94.80
2019-03-20T04:41:27.722Z,94.60
2019-03-20T04:43:54.366Z,94.60
2019-03-20T04:46:21.065Z,94.50
2019-03-20T04:48:47.693Z,94.30
2019-03-20T04:51:14.388Z,94.50
2019-03-20T04:53:41.048Z,94.60
2019-03-20T04:56:07.746Z,94.30
2019-03-20T04:58:34.393Z,94.40
2019-03-20T05:01:01.087Z,95.00
2019-03-20T05:03:27.779Z,95.00
2019-03-20T05:05:54.532Z,94.70
2019-03-20T05:08:21.353Z,94.50
2019-03-20T05:10:47.981Z,94.50
2019-03-20T05:13:14.750Z,96.20
2019-03-20T05:15:41.568Z,96.50
2019-03-20T05:18:08.232Z,95.80
2019-03-20T05:20:44.195Z,95.90
2019-03-20T05:23:11.053Z,95.90
2019-03-20T05:25:37.875Z,95.90
2019-03-20T05:28:04.816Z,97.00
2019-03-20T05:30:33.282Z,97.10
2019-03-20T05:33:00.453Z,96.40
2019-03-20T05:35:27.225Z,96.20
2019-03-20T05:37:53.885Z,96.40
2019-03-20T05:40:20.538Z,96.30
2019-03-20T05:42:47.161Z,96.60
2019-03-20T05:45:19.884Z,96.80
2019-03-20T05:47:46.522Z,96.60
2019-03-20T05:50:14.198Z,96.80
2019-03-20T05:52:40.844Z,96.10
2019-03-20T05:55:08.304Z,96.00
2019-03-20T05:57:34.945Z,96.00
2019-03-20T06:00:02.115Z,95.60
2019-03-20T06:02:28.746Z,96.00
2019-03-20T06:04:55.382Z,95.70
2019-03-20T06:07:22.150Z,95.90
2019-03-20T06:09:48.856Z,95.70
2019-03-20T06:12:15.532Z,95.60
2019-03-20T06:14:42.190Z,96.30
2019-03-20T06:17:08.854Z,96.00
2019-03-20T06:19:35.594Z,95.40
2019-03-20T06:22:02.407Z,95.30
2019-03-20T06:24:29.036Z,95.40
2019-03-20T06:26:55.725Z,95.00
2019-03-20T06:29:22.352Z,95.10
2019-03-20T06:31:49.042Z,95.40
2019-03-20T06:34:15.691Z,95.70
2019-03-20T06:36:42.349Z,95.30
2019-03-20T06:39:09.008Z,94.80
2019-03-20T06:41:35.697Z,94.80
2019-03-20T06:44:02.436Z,94.70
2019-03-20T06:46:29.104Z,95.10
2019-03-20T06:48:55.749Z,95.20
2019-03-20T06:51:22.373Z,95.50
2019-03-20T06:53:49.062Z,95.90
2019-03-20T06:56:15.691Z,95.00
2019-03-20T06:58:42.368Z,95.00
2019-03-20T07:01:18.380Z,95.40
2019-03-20T07:03:51.776Z,94.90
2019-03-20T07:06:47.973Z,95.20
2019-03-20T07:09:18.257Z,95.10
2019-03-20T07:11:45.215Z,94.50
2019-03-20T07:14:11.997Z,94.60
2019-03-20T07:16:38.629Z,93.80
2019-03-20T07:19:05.275Z,93.90
2019-03-20T07:21:32.057Z,93.80
2019-03-20T07:24:00.499Z,93.90
2019-03-20T07:26:28.703Z,93.70
2019-03-20T07:28:55.512Z,93.30
2019-03-20T07:31:22.178Z,92.90
2019-03-20T07:33:48.817Z,92.50
2019-03-20T07:36:15.501Z,93.00
2019-03-20T07:38:42.129Z,92.70
2019-03-20T07:41:08.812Z,92.60
2019-03-20T07:43:35.441Z,91.70
2019-03-20T07:46:02.117Z,92.30
2019-03-20T07:48:28.774Z,91.60
2019-03-20T07:50:55.434Z,91.20
2019-03-20T07:53:22.053Z,90.80
2019-03-20T07:55:48.749Z,91.00
2019-03-20T07:58:15.409Z,90.30
2019-03-20T08:00:42.093Z,90.70
2019-03-20T08:03:08.717Z,90.90
2019-03-20T08:05:35.380Z,90.60
2019-03-20T08:08:07.385Z,90.90
2019-03-20T08:10:30.477Z,88.70
2019-03-20T08:12:57.210Z,89.90
2019-03-20T08:15:23.865Z,90.10
2019-03-20T08:17:50.546Z,89.70
2019-03-20T08:20:23.048Z,90.50
2019-03-20T08:22:49.732Z,90.50
2019-03-20T08:25:16.357Z,89.60
2019-03-20T08:27:43.025Z,89.30
2019-03-20T08:30:15.063Z,89.00
2019-03-20T08:32:41.783Z,89.30
2019-03-20T08:35:10.165Z,88.70
2019-03-20T08:37:36.794Z,87.70
2019-03-20T08:40:12.542Z,86.70
2019-03-20T08:42:39.406Z,86.20
2019-03-20T08:45:11.449Z,86.40
2019-03-20T08:47:38.193Z,86.80
2019-03-20T08:50:08.490Z,86.20
2019-03-20T08:52:35.131Z,85.00
2019-03-20T08:55:01.746Z,84.90
2019-03-20T08:57:28.435Z,83.40
2019-03-20T08:59:55.115Z,84.30
2019-03-20T09:02:21.769Z,84.50
2019-03-20T09:04:48.536Z,82.00
2019-03-20T09:07:15.201Z,84.40
2019-03-20T09:09:41.981Z,84.20
2019-03-20T09:12:08.640Z,84.60
2019-03-20T09:14:35.379Z,85.30
2019-03-20T09:17:02.201Z,84.00
2019-03-20T09:19:28.940Z,84.10
2019-03-20T09:21:55.623Z,83.50
2019-03-20T09:24:22.257Z,82.30
2019-03-20T09:26:48.952Z,81.50
2019-03-20T09:29:18.787Z,81.40
2019-03-20T09:31:44.289Z,82.50
2019-03-20T09:34:11.078Z,82.20
2019-03-20T09:36:43.194Z,80.50
2019-03-20T09:39:06.583Z,80.80
2019-03-20T09:41:33.499Z,79.40
2019-03-20T09:44:00.128Z,79.90
2019-03-20T09:46:26.969Z,79.70
2019-03-20T09:48:53.733Z,79.40
2019-03-20T09:51:20.531Z,81.40
2019-03-20T09:53:47.309Z,81.30
2019-03-20T09:56:14.027Z,80.70
2019-03-20T09:58:40.821Z,79.40
2019-03-20T10:01:07.489Z,78.80
2019-03-20T10:03:34.161Z,78.50
2019-03-20T10:06:00.986Z,78.60
2019-03-20T10:08:27.770Z,78.10
2019-03-20T10:10:54.546Z,78.70
2019-03-20T10:13:21.358Z,80.90
2019-03-20T10:15:48.010Z,79.30
2019-03-20T10:18:14.705Z,78.30
2019-03-20T10:20:41.489Z,78.70
2019-03-20T10:23:08.295Z,78.40
2019-03-20T10:25:44.116Z,78.60
2019-03-20T10:28:03.497Z,78.00
2019-03-20T10:30:30.225Z,77.90
2019-03-20T10:32:56.966Z,77.10
2019-03-20T10:35:23.730Z,77.40
2019-03-20T10:37:50.641Z,77.30
2019-03-20T10:40:19.262Z,78.40
2019-03-20T10:42:45.879Z,77.00
2019-03-20T10:45:14.149Z,75.60
2019-03-20T10:47:40.828Z,75.10
2019-03-20T10:50:10.431Z,74.30
2019-03-20T10:52:37.080Z,75.20
2019-03-20T10:55:06.015Z,75.80
2019-03-20T10:57:32.681Z,75.50
2019-03-20T10:59:59.466Z,75.60
2019-03-20T11:02:26.213Z,74.30
2019-03-20T11:04:52.901Z,74.10
2019-03-20T11:07:19.844Z,76.00
2019-03-20T11:09:46.617Z,74.20
2019-03-20T11:12:13.364Z,73.10
2019-03-20T11:14:40.024Z,73.30
2019-03-20T11:17:06.741Z,75.00
2019-03-20T11:19:33.536Z,72.60
2019-03-20T11:22:00.204Z,74.80
2019-03-20T11:24:26.962Z,71.80
2019-03-20T11:26:53.643Z,71.40
2019-03-20T11:29:21.723Z,69.90
2019-03-20T11:31:48.682Z,70.70
2019-03-20T11:34:15.331Z,71.70
2019-03-20T11:36:42.044Z,71.90
2019-03-20T11:39:08.922Z,69.70
2019-03-20T11:41:35.674Z,70.10
2019-03-20T11:44:02.466Z,69.80
2019-03-20T11:46:29.151Z,71.50
2019-03-20T11:48:55.948Z,71.30
2019-03-20T11:51:22.690Z,70.80
2019-03-20T11:53:49.394Z,67.80
2019-03-20T11:56:16.143Z,69.70
2019-03-20T11:58:42.863Z,69.50
2019-03-20T12:01:09.528Z,69.20
2019-03-20T12:03:36.211Z,69.40
2019-03-20T12:06:03.002Z,69.20
2019-03-20T12:08:29.687Z,68.50
2019-03-20T12:10:56.400Z,66.40
2019-03-20T12:13:23.158Z,67.20
2019-03-20T12:15:49.824Z,68.60
2019-03-20T12:18:16.531Z,67.70
2019-03-20T12:20:43.312Z,69.50
2019-03-20T12:23:09.973Z,68.90
2019-03-20T12:25:38.233Z,68.50
2019-03-20T12:28:04.918Z,68.10
2019-03-20T12:30:34.082Z,69.20
2019-03-20T12:33:00.963Z,68.20
2019-03-20T12:35:30.405Z,67.90
2019-03-20T12:37:57.410Z,68.30
2019-03-20T12:40:26.392Z,66.70
2019-03-20T12:42:53.538Z,67.40
2019-03-20T12:45:22.557Z,66.90
2019-03-20T12:47:49.619Z,68.00
2019-03-20T12:50:16.348Z,64.20
2019-03-20T12:52:43.145Z,63.30
2019-03-20T12:55:12.141Z,64.50
2019-03-20T12:57:38.777Z,63.10
2019-03-20T13:00:27.434Z,65.10
2019-03-20T13:02:54.456Z,65.20
2019-03-20T13:05:21.475Z,65.70
2019-03-20T13:07:48.228Z,63.70
2019-03-20T13:10:20.173Z,62.20
2019-03-20T13:12:46.989Z,62.10
2019-03-20T13:15:19.332Z,63.00
2019-03-20T13:17:46.129Z,65.30
2019-03-20T13:20:12.972Z,65.20
2019-03-20T13:22:39.716Z,62.90
2019-03-20T13:25:09.801Z,62.70
2019-03-20T13:27:36.711Z,63.90
2019-03-20T13:30:22.116Z,63.70
2019-03-20T13:32:49.990Z,64.70
2019-03-20T13:35:16.725Z,63.80
2019-03-20T13:37:43.390Z,64.50
2019-03-20T13:40:14.560Z,64.70
2019-03-20T13:42:39.865Z,64.40
2019-03-20T13:45:16.226Z,66.60
2019-03-20T13:47:42.986Z,67.90
2019-03-20T13:50:11.867Z,66.20
2019-03-20T13:52:38.657Z,66.10
2019-03-20T13:55:07.796Z,67.60
2019-03-20T13:57:34.653Z,68.70
2019-03-20T14:00:01.410Z,68.00
2019-03-20T14:02:31.146Z,67.50
2019-03-20T14:04:57.830Z,67.80
2019-03-20T14:07:24.686Z,67.60
2019-03-20T14:09:51.446Z,67.50
2019-03-20T14:12:18.281Z,68.40
2019-03-20T14:14:45.098Z,67.80
2019-03-20T14:17:11.803Z,68.40
2019-03-20T14:19:38.540Z,67.80
2019-03-20T14:22:05.262Z,66.90
2019-03-20T14:24:32.042Z,67.60
2019-03-20T14:26:59.196Z,68.40
2019-03-20T14:29:25.924Z,66.50
2019-03-20T14:31:52.804Z,66.00
2019-03-20T14:34:19.648Z,65.60
2019-03-20T14:36:46.324Z,65.70
2019-03-20T14:39:13.152Z,64.30
2019-03-20T14:41:40.002Z,64.50
2019-03-20T14:44:06.681Z,63.80
2019-03-20T14:46:33.478Z,63.40
2019-03-20T14:49:00.203Z,63.90
2019-03-20T14:51:27.025Z,63.70
2019-03-20T14:53:53.759Z,65.20
2019-03-20T14:56:20.547Z,63.80
2019-03-20T14:58:47.352Z,62.10
2019-03-20T15:01:14.014Z,61.40
2019-03-20T15:03:40.809Z,64.20
2019-03-20T15:06:07.418Z,64.30
2019-03-20T15:08:34.245Z,64.90
2019-03-20T15:11:01.001Z,65.00
2019-03-20T15:13:27.702Z,66.30
2019-03-20T15:16:01.134Z,65.90
2019-03-20T15:18:27.891Z,65.40
2019-03-20T15:20:54.680Z,65.70
2019-03-20T15:23:21.458Z,65.50
2019-03-20T15:25:48.344Z,65.10
2019-03-20T15:28:15.420Z,65.30
2019-03-20T15:30:42.581Z,65.40
2019-03-20T15:33:09.236Z,66.00
2019-03-20T15:35:35.966Z,66.00
2019-03-20T15:38:02.911Z,67.60
2019-03-20T15:40:30.214Z,65.70
2019-03-20T15:42:56.949Z,66.90
2019-03-20T15:45:23.799Z,65.70
2019-03-20T15:47:50.437Z,65.00
2019-03-20T15:50:19.560Z,66.30
2019-03-20T15:52:46.408Z,66.10
2019-03-20T15:55:28.066Z,65.70
2019-03-20T15:57:54.899Z,66.50
2019-03-20T16:00:22.301Z,66.80
2019-03-20T16:02:51.993Z,67.00
2019-03-20T16:05:18.712Z,67.90
2019-03-20T16:07:45.517Z,67.50
2019-03-20T16:10:17.412Z,66.90
2019-03-20T16:12:44.358Z,68.00
2019-03-20T16:15:13.897Z,68.70
2019-03-20T16:17:40.766Z,70.50
2019-03-20T16:20:09.324Z,73.20
2019-03-20T16:22:36.038Z,75.00
2019-03-20T16:25:05.014Z,75.40
2019-03-20T16:27:31.887Z,76.80
2019-03-20T16:29:58.694Z,79.00
2019-03-20T16:32:25.558Z,79.70
2019-03-20T16:34:52.414Z,80.10
2019-03-20T16:37:19.145Z,80.90
2019-03-20T16:39:45.909Z,81.00
2019-03-20T16:42:12.611Z,81.50
2019-03-20T16:44:39.413Z,81.20
2019-03-20T16:47:06.234Z,81.30
2019-03-20T16:49:33.062Z,80.80
2019-03-20T16:51:59.670Z,81.90
2019-03-20T16:54:26.372Z,82.20
2019-03-20T16:56:53.062Z,83.00
2019-03-20T16:59:19.877Z,82.80
2019-03-20T17:01:46.776Z,83.20
2019-03-20T17:04:13.407Z,83.00
2019-03-20T17:06:40.146Z,83.50
2019-03-20T17:09:06.937Z,83.70
2019-03-20T17:11:38.376Z,83.40
2019-03-20T17:14:02.299Z,83.70
2019-03-20T17:16:28.895Z,83.60
2019-03-20T17:18:57.633Z,84.20
2019-03-20T17:21:24.441Z,83.90
2019-03-20T17:23:51.201Z,84.30
2019-03-20T17:26:18.120Z,84.30
2019-03-20T17:28:44.751Z,85.00
2019-03-20T17:31:11.639Z,84.90
2019-03-20T17:33:38.276Z,84.40
2019-03-20T17:36:04.964Z,84.60
2019-03-20T17:38:31.873Z,84.60
2019-03-20T17:40:58.578Z,84.20
2019-03-20T17:43:25.351Z,84.30
2019-03-20T17:45:52.086Z,84.60
2019-03-20T17:48:18.858Z,84.30
2019-03-20T17:50:45.581Z,84.30
2019-03-20T17:53:12.406Z,85.00
2019-03-20T17:55:39.250Z,85.30
2019-03-20T17:58:07.851Z,85.80
2019-03-20T18:00:42.273Z,84.50
2019-03-20T18:03:09.037Z,84.90
2019-03-20T18:05:35.780Z,85.30
2019-03-20T18:08:04.114Z,85.70
2019-03-20T18:10:33.193Z,85.30
2019-03-20T18:12:59.790Z,85.30
2019-03-20T18:15:26.544Z,84.70
2019-03-20T18:17:53.405Z,85.00
2019-03-20T18:20:20.233Z,85.40
2019-03-20T18:22:47.060Z,85.00
2019-03-20T18:25:13.925Z,85.30
2019-03-20T18:27:40.717Z,86.20
2019-03-20T18:30:28.377Z,85.80
2019-03-20T18:32:55.219Z,85.50
2019-03-20T18:35:21.916Z,85.60
2019-03-20T18:37:49.123Z,85.60
2019-03-20T18:40:18.655Z,85.50
2019-03-20T18:42:45.677Z,86.20
2019-03-20T18:45:18.138Z,85.30
2019-03-20T18:47:44.916Z,84.90
2019-03-20T18:50:13.487Z,86.00
2019-03-20T18:52:40.322Z,86.50
2019-03-20T18:55:09.485Z,87.10
2019-03-20T18:57:36.259Z,87.00
2019-03-20T19:00:09.225Z,86.40
2019-03-20T19:02:36.109Z,86.60
2019-03-20T19:05:06.056Z,86.50
2019-03-20T19:07:35.937Z,87.30
2019-03-20T19:10:06.058Z,88.00
2019-03-20T19:12:32.828Z,87.00
2019-03-20T19:14:59.533Z,87.30
2019-03-20T19:17:26.349Z,87.80
2019-03-20T19:19:53.014Z,88.00
2019-03-20T19:22:19.807Z,89.50
2019-03-20T19:24:46.691Z,90.00
2019-03-20T19:27:13.420Z,89.40
2019-03-20T19:29:40.216Z,89.80
2019-03-20T19:32:06.836Z,90.30
2019-03-20T19:34:33.555Z,90.20
2019-03-20T19:37:00.302Z,89.70
2019-03-20T19:39:27.535Z,90.10
2019-03-20T19:41:54.259Z,90.40
2019-03-20T19:44:21.118Z,92.90
2019-03-20T19:46:47.860Z,90.80
2019-03-20T19:49:14.916Z,90.50
2019-03-20T19:51:44.831Z,90.70
2019-03-20T19:54:11.981Z,91.00
2019-03-20T19:56:38.763Z,90.80
2019-03-20T19:59:05.574Z,90.60
2019-03-20T20:01:32.381Z,90.80
2019-03-20T20:04:04.061Z,90.80
2019-03-20T20:06:30.820Z,90.90
2019-03-20T20:08:57.854Z,91.20
2019-03-20T20:11:24.714Z,91.80
2019-03-20T20:13:51.437Z,92.00
2019-03-20T20:16:18.154Z,91.90
2019-03-20T20:18:44.812Z,92.10
2019-03-20T20:21:11.546Z,92.60
2019-03-20T20:23:38.290Z,92.50
2019-03-20T20:26:04.966Z,92.80
2019-03-20T20:28:31.654Z,92.90
2019-03-20T20:30:59.121Z,92.90
2019-03-20T20:33:25.754Z,92.70
2019-03-20T20:35:52.417Z,92.90
2019-03-20T20:38:19.169Z,92.90
2019-03-20T20:40:47.103Z,92.90
2019-03-20T20:43:14.410Z,92.70
2019-03-20T20:45:44.294Z,92.80
2019-03-20T20:48:11.222Z,92.90
2019-03-20T20:50:37.839Z,92.80
2019-03-20T20:53:04.624Z,93.00
2019-03-20T20:55:31.333Z,93.50
2019-03-20T20:57:58.644Z,92.70
2019-03-20T21:00:27.546Z,92.60
2019-03-20T21:02:55.245Z,92.40
2019-03-20T21:05:22.018Z,92.30
2019-03-20T21:07:48.770Z,92.30
2019-03-20T21:10:18.239Z,92.20
2019-03-20T21:12:55.452Z,92.70
2019-03-20T21:15:20.357Z,92.50
2019-03-20T21:18:07.485Z,92.80
2019-03-20T21:20:34.168Z,93.10
2019-03-20T21:23:39.545Z,93.60
2019-03-20T21:26:07.613Z,94.00
2019-03-20T21:29:09.892Z,93.90
2019-03-20T21:31:38.669Z,93.80
2019-03-20T21:34:42.881Z,93.60
2019-03-20T21:37:18.305Z,94.00
2019-03-20T21:39:44.997Z,94.10
2019-03-20T21:42:33.245Z,94.10
2019-03-20T21:45:29.792Z,93.40
2019-03-20T21:47:56.442Z,93.70
2019-03-20T21:50:52.805Z,93.30
2019-03-20T21:53:28.884Z,93.70
2019-03-20T21:56:19.113Z,93.60
2019-03-20T21:59:14.271Z,93.40
2019-03-20T22:02:01.652Z,92.90
2019-03-20T22:04:28.483Z,93.00
2019-03-20T22:07:07.054Z,93.20
2019-03-20T22:10:12.211Z,93.10
2019-03-20T22:13:06.336Z,93.10
2019-03-20T22:15:53.433Z,92.90
2019-03-20T22:18:26.349Z,92.40
2019-03-20T22:20:59.775Z,92.60
2019-03-20T22:23:39.544Z,92.50
2019-03-20T22:26:19.289Z,92.00
2019-03-20T22:28:52.384Z,92.20
2019-03-20T22:31:20.300Z,92.80
2019-03-20T22:34:24.422Z,92.70
2019-03-20T22:36:52.282Z,93.30
2019-03-20T22:39:51.906Z,92.20
2019-03-20T22:42:25.083Z,91.90
2019-03-20T22:45:01.199Z,92.00
2019-03-20T22:47:37.804Z,91.80
2019-03-20T22:50:23.534Z,91.50
2019-03-20T22:53:05.966Z,92.00
2019-03-20T22:55:42.213Z,92.00
2019-03-20T22:58:21.913Z,91.80
2019-03-20T23:00:57.288Z,92.10
2019-03-20T23:03:27.580Z,92.10
2019-03-20T23:05:54.387Z,91.80
2019-03-20T23:08:21.009Z,91.90
2019-03-20T23:10:50.013Z,91.80
2019-03-20T23:13:19.120Z,91.60
2019-03-20T23:15:47.081Z,92.00
2019-03-20T23:18:13.719Z,91.70
2019-03-20T23:20:40.392Z,92.20
2019-03-20T23:23:07.090Z,92.20
2019-03-20T23:25:33.913Z,92.40
2019-03-20T23:28:00.638Z,92.30
2019-03-20T23:30:29.601Z,92.60
2019-03-20T23:33:15.993Z,93.40
2019-03-20T23:35:42.688Z,93.00
2019-03-20T23:38:09.503Z,93.00
2019-03-20T23:40:36.149Z,93.80
2019-03-20T23:43:09.434Z,94.50
2019-03-20T23:45:36.176Z,93.60
2019-03-20T23:48:23.136Z,94.20
2019-03-20T23:50:53.418Z,94.80
2019-03-20T23:53:20.084Z,95.00
2019-03-20T23:55:46.816Z,95.20
2019-03-20T23:58:13.610Z,95.50
